Time;durP1;ratioP1;P1;durP2;ratioP2;P2;SDS_P1;SDS_P2;PMS_P1;PMS_P2;Temp;Humidity;BMP_temperature;BMP_pressure;BME280_temperature;BME280_humidity;BME280_pressure;Samples;Min_cycle;Max_cycle;Signal;HPM_P1;HPM_P2
2021/12/04 00:02:18;;;;;;;16.77;5.00;;;;;;;4.27;92.96;100098.41;4994279;28;97862;-35
2021/12/04 00:04:47;;;;;;;13.13;4.32;;;;;;;4.33;92.63;100099.91;4995132;28;97275;-35
2021/12/04 00:07:14;;;;;;;8.93;3.78;;;;;;;4.34;92.80;100090.91;4995238;28;96605;-35
2021/12/04 00:09:39;;;;;;;9.50;4.82;;;;;;;4.34;92.64;100094.47;4993719;28;96524;-35
2021/12/04 00:12:06;;;;;;;10.48;5.07;;;;;;;4.32;92.74;100090.13;4994843;28;97909;-35
2021/12/04 00:14:34;;;;;;;12.13;5.63;;;;;;;4.35;93.01;100090.84;4993048;28;100844;-35
2021/12/04 00:17:00;;;;;;;10.63;4.45;;;;;;;4.33;92.75;100084.69;4993655;28;96690;-35
2021/12/04 00:19:27;;;;;;;11.05;5.65;;;;;;;4.32;93.11;100072.25;4995581;28;96733;-35
2021/12/04 00:21:53;;;;;;;9.45;3.47;;;;;;;4.29;92.79;100063.47;4993201;28;100773;-34
2021/12/04 00:24:19;;;;;;;7.80;4.30;;;;;;;4.31;92.78;100064.25;4993231;28;100853;-34
2021/12/04 00:26:47;;;;;;;6.80;4.55;;;;;;;4.35;93.05;100071.22;4992706;28;96558;-34
2021/12/04 00:29:13;;;;;;;12.02;5.22;;;;;;;4.37;93.13;100069.34;4993321;28;96793;-35
2021/12/04 00:31:44;;;;;;;10.32;5.07;;;;;;;4.34;92.72;100058.72;4994694;28;97062;-34
2021/12/04 00:34:09;;;;;;;6.70;4.50;;;;;;;4.38;92.87;100057.66;4994610;28;98142;-35
2021/12/04 00:50:12;;;;;;;11.00;4.72;;;;;;;4.36;92.65;100046.13;4994973;28;96686;-34
2021/12/04 00:52:37;;;;;;;25.63;5.75;;;;;;;4.35;92.74;100056.00;4993806;28;98013;-34
2021/12/04 00:55:04;;;;;;;12.90;5.05;;;;;;;4.39;92.94;100065.63;4994202;28;97969;-35
2021/12/04 00:57:30;;;;;;;20.20;6.00;;;;;;;4.26;93.02;100046.56;4995049;28;96685;-35
2021/12/04 00:59:55;;;;;;;13.85;5.35;;;;;;;4.34;92.72;100051.59;4996783;28;96837;-35
2021/12/04 01:02:21;;;;;;;14.40;7.22;;;;;;;4.36;93.01;100062.22;4997107;28;97901;-35
2021/12/04 01:04:47;;;;;;;10.10;5.38;;;;;;;4.32;93.29;100044.56;4996022;28;101254;-35
2021/12/04 01:07:12;;;;;;;8.80;4.50;;;;;;;4.36;92.91;100048.81;4996584;28;96499;-35
2021/12/04 01:09:38;;;;;;;12.90;5.15;;;;;;;4.32;93.02;100032.03;4997506;28;110278;-35
2021/12/04 01:12:04;;;;;;;15.07;6.60;;;;;;;4.33;92.86;100033.75;4997323;28;118236;-34
2021/12/04 01:14:31;;;;;;;13.07;5.07;;;;;;;4.30;92.80;100025.00;4995993;28;101729;-35
2021/12/04 01:16:57;;;;;;;7.32;3.58;;;;;;;4.37;93.20;100043.38;4995831;28;96572;-35
2021/12/04 01:19:23;;;;;;;4.00;2.38;;;;;;;4.35;93.04;100037.22;4997828;28;96774;-35
2021/12/04 01:21:49;;;;;;;6.57;3.75;;;;;;;4.35;93.48;100037.22;4997557;28;97973;-35
2021/12/04 01:24:16;;;;;;;8.07;4.18;;;;;;;4.33;93.45;100028.38;4995916;28;100918;-35
2021/12/04 01:26:41;;;;;;;9.95;4.97;;;;;;;4.39;93.43;100036.13;4995917;28;96716;-35
2021/12/04 01:29:07;;;;;;;9.35;5.03;;;;;;;4.39;93.14;100027.25;4997828;28;96790;-34
2021/12/04 01:31:32;;;;;;;7.15;4.25;;;;;;;4.40;93.04;100018.22;4997396;28;97324;-34
2021/12/04 01:34:11;;;;;;;9.63;4.88;;;;;;;4.34;93.21;100014.06;4997547;28;99131;-34
2021/12/04 01:36:37;;;;;;;7.00;3.80;;;;;;;4.40;93.28;100016.41;4996030;28;96998;-35
2021/12/04 01:39:04;;;;;;;6.25;3.28;;;;;;;4.39;93.74;100020.06;4996049;28;96788;-34
2021/12/04 01:41:33;;;;;;;7.07;2.83;;;;;;;4.38;94.01;100009.41;4995167;28;100766;-34
2021/12/04 01:43:59;;;;;;;7.60;3.90;;;;;;;4.38;93.29;100009.41;4995825;28;101512;-35
2021/12/04 01:46:29;;;;;;;10.18;3.83;;;;;;;4.34;93.85;100002.44;4995873;28;96578;-34
2021/12/04 01:48:54;;;;;;;5.18;4.05;;;;;;;4.36;93.63;100008.59;4995953;28;96825;-35
2021/12/04 01:51:20;;;;;;;11.52;4.45;;;;;;;4.34;94.22;100003.34;4997020;28;97846;-34
2021/12/04 01:53:45;;;;;;;9.43;5.30;;;;;;;4.36;93.71;100006.81;4996876;28;97778;-34
2021/12/04 01:56:11;;;;;;;11.45;4.10;;;;;;;4.35;93.14;100005.06;4997362;28;96468;-34
2021/12/04 01:58:36;;;;;;;14.35;5.55;;;;;;;4.32;93.45;99993.63;4997634;28;96756;-34
2021/12/04 02:01:02;;;;;;;5.32;3.05;;;;;;;4.37;93.85;99999.63;4996434;28;97322;-35
2021/12/04 02:03:28;;;;;;;15.52;4.13;;;;;;;4.37;93.54;99988.91;4996908;28;97912;-34
2021/12/04 02:05:53;;;;;;;5.50;3.60;;;;;;;4.41;93.69;99998.50;4996891;28;96683;-35
2021/12/04 02:08:21;;;;;;;7.18;3.88;;;;;;;4.42;93.71;99997.59;4996513;28;96846;-34
2021/12/04 02:10:49;;;;;;;11.38;4.15;;;;;;;4.40;93.91;99983.38;4995308;28;101201;-34
2021/12/04 02:13:15;;;;;;;9.63;4.63;;;;;;;4.45;93.67;99987.56;4995001;28;100856;-35
2021/12/04 02:15:41;;;;;;;4.40;3.08;;;;;;;4.39;93.28;99981.66;4995584;28;96531;-34
2021/12/04 02:18:08;;;;;;;9.10;4.70;;;;;;;4.41;93.24;99983.31;4995490;28;96751;-34
2021/12/04 02:20:34;;;;;;;9.68;3.45;;;;;;;4.39;93.63;99981.66;4995095;28;100982;-34
2021/12/04 02:23:02;;;;;;;5.45;3.05;;;;;;;4.44;93.51;99990.34;4995576;28;100903;-35
2021/12/04 02:25:28;;;;;;;9.20;4.35;;;;;;;4.47;93.42;99998.22;4995439;28;96456;-35
2021/12/04 02:27:53;;;;;;;22.80;4.82;;;;;;;4.44;93.44;99991.19;4994705;28;96822;-34
2021/12/04 02:30:22;;;;;;;22.85;5.07;;;;;;;4.37;93.96;99972.81;4996028;28;99785;-34
2021/12/04 02:32:48;;;;;;;10.35;4.47;;;;;;;4.42;93.53;99968.09;4994969;28;101179;-34
2021/12/04 02:35:15;;;;;;;6.28;3.08;;;;;;;4.37;93.40;99965.63;4995186;28;96727;-35
2021/12/04 02:37:41;;;;;;;14.70;4.43;;;;;;;4.43;93.54;99975.16;4995234;28;96670;-35
2021/12/04 02:40:09;;;;;;;2.67;2.00;;;;;;;4.47;93.66;99982.13;4996070;28;99289;-35
2021/12/04 02:42:35;;;;;;;9.27;4.43;;;;;;;4.46;93.90;99985.78;4994463;28;102310;-35
2021/12/04 02:45:04;;;;;;;5.88;2.78;;;;;;;4.47;93.61;99977.63;4995063;28;96539;-34
2021/12/04 02:47:30;;;;;;;9.02;3.90;;;;;;;4.44;93.47;99971.56;4995372;28;96820;-34
2021/12/04 02:49:56;;;;;;;5.50;2.88;;;;;;;4.41;93.80;99966.34;4995996;28;102107;-34
2021/12/04 02:52:31;;;;;;;7.45;4.35;;;;;;;4.44;93.65;99976.94;4994568;28;100664;-34
2021/12/04 02:54:57;;;;;;;18.05;5.18;;;;;;;4.44;93.61;99975.09;4994328;28;96873;-35
2021/12/04 02:57:23;;;;;;;6.47;3.85;;;;;;;4.42;93.76;99970.78;4994897;28;96786;-35
2021/12/04 02:59:49;;;;;;;7.95;3.47;;;;;;;4.49;93.67;99976.69;4995962;28;97899;-34
2021/12/04 03:02:21;;;;;;;16.33;3.28;;;;;;;4.50;93.34;99976.59;4994276;28;101108;-34
2021/12/04 03:04:48;;;;;;;11.30;4.38;;;;;;;4.45;93.81;99968.78;4996301;28;96746;-34
2021/12/04 03:07:14;;;;;;;14.43;3.92;;;;;;;4.43;93.92;99961.78;4994650;28;96769;-35
2021/12/04 03:09:39;;;;;;;10.40;4.30;;;;;;;4.43;93.46;99951.94;4994077;28;101141;-35
2021/12/04 03:12:06;;;;;;;9.32;4.35;;;;;;;4.47;93.89;99963.34;4996186;28;97801;-35
2021/12/04 03:14:32;;;;;;;8.43;3.90;;;;;;;4.54;93.51;99978.19;4994558;28;96618;-35
2021/12/04 03:16:57;;;;;;;7.30;3.58;;;;;;;4.51;93.57;99959.59;4996003;28;96536;-34
2021/12/04 03:19:23;;;;;;;8.52;3.35;;;;;;;4.53;93.83;99957.69;4994602;28;97815;-35
2021/12/04 03:21:49;;;;;;;16.90;4.10;;;;;;;4.56;93.60;99957.53;4994234;28;100734;-34
2021/12/04 03:24:16;;;;;;;11.88;4.93;;;;;;;4.55;93.13;99946.88;4995865;28;97030;-35
2021/12/04 03:26:42;;;;;;;7.72;2.78;;;;;;;4.56;93.50;99948.63;4994363;28;96727;-35
2021/12/04 03:29:12;;;;;;;10.35;4.82;;;;;;;4.57;93.47;99945.84;4994083;28;100778;-35
2021/12/04 03:40:21;;;;;;;8.82;2.65;;;;;;;4.60;93.57;99932.28;4995909;28;97073;-34
2021/12/04 03:42:46;;;;;;;8.50;4.15;;;;;;;4.61;93.38;99933.16;4995575;28;97841;-34
2021/12/04 03:45:12;;;;;;;6.40;3.55;;;;;;;4.59;93.17;99935.91;4995014;28;97220;-34
2021/12/04 03:47:44;;;;;;;9.02;3.67;;;;;;;4.59;93.64;99927.00;4995295;28;96769;-35
2021/12/04 03:50:10;;;;;;;11.70;5.30;;;;;;;4.58;93.09;99931.50;4993613;28;101145;-35
2021/12/04 03:52:36;;;;;;;7.95;3.20;;;;;;;4.61;93.53;99920.59;4995355;28;98113;-35
2021/12/04 03:55:04;;;;;;;19.33;4.93;;;;;;;4.58;92.89;99919.91;4993859;28;96858;-34
2021/12/04 03:57:29;;;;;;;16.42;5.47;;;;;;;4.61;93.23;99922.44;4993681;28;96534;-35
2021/12/04 03:59:54;;;;;;;8.60;4.07;;;;;;;4.61;93.46;99917.94;4995087;28;97907;-35
2021/12/04 04:02:20;;;;;;;17.70;4.75;;;;;;;4.58;93.53;99910.06;4994527;28;108115;-35
2021/12/04 04:04:45;;;;;;;20.70;3.88;;;;;;;4.61;93.54;99920.59;4994626;28;110375;-35
2021/12/04 04:07:10;;;;;;;14.77;5.70;;;;;;;4.53;93.32;99905.84;4994913;28;101274;-35
2021/12/04 04:09:36;;;;;;;8.00;3.28;;;;;;;4.56;93.68;99906.56;4994319;28;99329;-35
2021/12/04 04:12:02;;;;;;;20.00;4.03;;;;;;;4.58;93.96;99906.50;4993437;28;99954;-35
2021/12/04 04:14:28;;;;;;;14.75;2.95;;;;;;;4.57;93.58;99902.94;4993678;28;96531;-34
2021/12/04 04:16:55;;;;;;;6.45;4.13;;;;;;;4.60;93.90;99908.16;4995213;28;96707;-35
2021/12/04 04:19:22;;;;;;;13.48;4.15;;;;;;;4.62;93.25;99913.41;4993318;28;101498;-35
2021/12/04 04:21:48;;;;;;;24.55;6.13;;;;;;;4.55;93.29;99898.59;4993201;28;101245;-35
2021/12/04 04:24:17;;;;;;;11.55;4.38;;;;;;;4.57;93.57;99902.94;4993674;28;96678;-35
2021/12/04 04:26:43;;;;;;;10.68;3.55;;;;;;;4.60;93.11;99899.22;4994862;28;96740;-34
2021/12/04 04:29:09;;;;;;;13.65;4.88;;;;;;;4.58;93.67;99895.78;4993127;28;100776;-34
2021/12/04 04:31:37;;;;;;;9.43;5.20;;;;;;;4.58;93.59;99895.78;4994613;28;97274;-34
2021/12/04 04:34:08;;;;;;;13.63;3.75;;;;;;;4.59;93.75;99895.69;4992951;28;96701;-35
2021/12/04 04:58:20;;;;;;;13.52;3.42;;;;;;;4.66;93.52;99866.72;4994930;28;96677;-35
2021/12/04 05:01:10;;;;;;;6.93;3.22;;;;;;;4.64;93.75;99863.25;4991919;28;101201;-35
2021/12/04 05:14:34;;;;;;;7.15;3.75;;;;;;;4.74;93.45;99869.00;4993646;28;97465;-35
2021/12/04 05:17:09;;;;;;;15.60;3.45;;;;;;;4.75;93.37;99865.38;4992967;28;96498;-35
2021/12/04 05:19:42;;;;;;;13.75;5.28;;;;;;;4.75;93.52;99858.19;4994800;28;96611;-34
2021/12/04 05:22:09;;;;;;;17.88;4.65;;;;;;;4.77;93.55;99858.13;4994164;28;97933;-34
2021/12/04 05:24:35;;;;;;;15.35;4.03;;;;;;;4.65;93.44;99839.03;4992579;28;100765;-34
2021/12/04 05:27:00;;;;;;;16.67;3.95;;;;;;;4.73;93.69;99848.50;4993215;28;96641;-35
2021/12/04 05:29:26;;;;;;;27.63;6.53;;;;;;;4.73;93.62;99856.53;4994048;28;96789;-34
2021/12/04 05:31:52;;;;;;;3.35;2.33;;;;;;;4.73;94.34;99859.22;4993983;28;97333;-34
2021/12/04 05:34:17;;;;;;;7.80;4.60;;;;;;;4.71;94.02;99855.75;4992565;28;100079;-35
2021/12/04 05:36:43;;;;;;;15.63;5.78;;;;;;;4.63;93.94;99846.31;4994457;28;96439;-35
2021/12/04 05:39:09;;;;;;;14.27;4.93;;;;;;;4.74;93.53;99858.25;4994176;28;96716;-34
2021/12/04 05:41:35;;;;;;;13.45;5.30;;;;;;;4.73;93.61;99862.78;4993717;28;97807;-34
2021/12/04 05:44:05;;;;;;;13.63;4.93;;;;;;;4.65;93.45;99847.09;4996365;28;99100;-34
2021/12/04 05:46:36;;;;;;;10.05;4.00;;;;;;;4.68;93.37;99857.66;4997728;28;96450;-34
2021/12/04 05:49:08;;;;;;;13.05;4.05;;;;;;;4.61;93.38;99834.78;4997297;28;96633;-34
2021/12/04 05:56:47;;;;;;;8.52;3.70;;;;;;;4.66;93.72;99840.75;4997684;28;96685;-35
2021/12/04 05:59:12;;;;;;;11.57;3.00;;;;;;;4.60;93.81;99822.34;4997058;28;96867;-34
2021/12/04 06:01:38;;;;;;;6.10;3.22;;;;;;;4.64;93.22;99828.38;4996645;28;102376;-34
2021/12/04 06:04:03;;;;;;;7.07;2.90;;;;;;;4.60;93.54;99824.13;4995437;28;99201;-35
2021/12/04 06:06:29;;;;;;;3.38;1.88;;;;;;;4.57;93.52;99827.84;4996935;28;96453;-34
2021/12/04 06:08:55;;;;;;;10.73;3.97;;;;;;;4.55;93.50;99834.25;4997550;28;96602;-35
2021/12/04 06:11:21;;;;;;;7.03;2.88;;;;;;;4.53;93.39;99828.97;4996894;28;97886;-35
2021/12/04 06:13:47;;;;;;;7.22;2.70;;;;;;;4.58;93.74;99834.97;4995193;28;100590;-35
2021/12/04 06:16:14;;;;;;;4.60;2.67;;;;;;;4.59;93.24;99836.69;4995006;28;96580;-35
2021/12/04 06:18:40;;;;;;;3.13;2.15;;;;;;;4.56;93.45;99836.84;4995522;28;96859;-34
2021/12/04 06:23:49;;;;;;;5.90;2.15;;;;;;;4.52;93.26;99829.06;4996874;28;97184;-35
2021/12/04 06:26:15;;;;;;;7.95;3.83;;;;;;;4.52;93.03;99840.63;4996981;28;96611;-35
2021/12/04 06:28:41;;;;;;;10.18;3.60;;;;;;;4.56;93.33;99839.53;4996621;28;96701;-35
2021/12/04 06:31:08;;;;;;;8.27;3.15;;;;;;;4.49;93.54;99827.41;4994949;28;101719;-35
2021/12/04 06:33:34;;;;;;;6.75;3.08;;;;;;;4.53;92.92;99838.81;4995258;28;100833;-35
2021/12/04 06:36:00;;;;;;;9.25;2.50;;;;;;;4.47;93.40;99842.69;4995276;28;96592;-34
2021/12/04 06:38:25;;;;;;;4.10;2.05;;;;;;;4.42;93.25;99831.34;4996773;28;96817;-35
2021/12/04 06:40:51;;;;;;;9.75;3.22;;;;;;;4.49;93.36;99842.63;4996008;28;97916;-34
2021/12/04 06:43:17;;;;;;;4.72;2.20;;;;;;;4.44;93.21;99840.19;4996424;28;97941;-35
2021/12/04 06:45:44;;;;;;;3.70;2.05;;;;;;;4.44;93.51;99837.50;4996326;28;96445;-34
2021/12/04 06:48:13;;;;;;;5.63;3.38;;;;;;;4.42;93.30;99828.66;4995109;28;96897;-35
2021/12/04 06:55:43;;;;;;;8.63;4.10;;;;;;;4.38;93.29;99811.00;4995128;28;96614;-34
2021/12/04 06:58:09;;;;;;;11.32;3.17;;;;;;;4.46;93.33;99819.53;4995243;28;96709;-35
2021/12/04 07:00:35;;;;;;;11.75;3.90;;;;;;;4.39;93.21;99816.28;4995704;28;97830;-34
2021/12/04 07:03:00;;;;;;;9.05;3.80;;;;;;;4.40;93.47;99830.56;4994420;28;100987;-34
2021/12/04 07:05:25;;;;;;;5.53;2.25;;;;;;;4.42;93.25;99836.72;4995755;28;96526;-34
2021/12/04 07:07:51;;;;;;;9.32;2.80;;;;;;;4.43;93.55;99833.97;4995353;28;117243;-34
2021/12/04 07:10:16;;;;;;;5.75;2.83;;;;;;;4.42;93.52;99831.34;4994943;28;122599;-34
2021/12/04 07:12:41;;;;;;;13.43;3.03;;;;;;;4.39;93.37;99823.47;4995680;28;105447;-34
2021/12/04 07:15:09;;;;;;;5.68;2.70;;;;;;;4.44;93.41;99829.47;4995879;28;96528;-34
2021/12/04 07:17:35;;;;;;;8.95;3.22;;;;;;;4.35;93.62;99806.69;4995765;28;96820;-35
2021/12/04 07:20:03;;;;;;;8.43;2.60;;;;;;;4.38;93.50;99822.59;4994256;28;100765;-34
2021/12/04 07:22:28;;;;;;;10.98;4.07;;;;;;;4.29;93.33;99816.84;4994505;28;102003;-35
2021/12/04 07:24:54;;;;;;;15.50;3.38;;;;;;;4.28;93.72;99817.81;4996040;28;96671;-34
2021/12/04 07:27:19;;;;;;;4.05;1.80;;;;;;;4.23;93.61;99815.38;4995486;28;96767;-34
2021/12/04 07:29:45;;;;;;;9.13;3.13;;;;;;;4.26;93.75;99812.50;4995157;28;97816;-35
2021/12/04 07:32:10;;;;;;;3.75;1.85;;;;;;;4.25;94.04;99808.97;4995399;28;97339;-34
2021/12/04 07:34:35;;;;;;;5.28;2.33;;;;;;;4.20;94.03;99797.63;4996024;28;96637;-34
2021/12/04 07:37:02;;;;;;;6.45;2.67;;;;;;;4.18;93.96;99788.81;4995955;28;96784;-34
2021/12/04 07:39:28;;;;;;;6.50;3.20;;;;;;;4.13;94.00;99790.84;4993985;28;101131;-34
2021/12/04 07:41:53;;;;;;;5.03;3.08;;;;;;;4.18;94.16;99788.81;4995516;28;97799;-34
2021/12/04 07:44:18;;;;;;;10.27;3.72;;;;;;;4.20;93.43;99796.78;4996140;28;96760;-35
2021/12/04 07:46:47;;;;;;;3.58;2.08;;;;;;;4.15;94.00;99785.44;4995847;28;96876;-34
2021/12/04 07:49:12;;;;;;;12.00;4.47;;;;;;;4.08;93.60;99774.16;4995305;28;97829;-34
2021/12/04 07:51:38;;;;;;;9.70;4.00;;;;;;;4.08;93.75;99760.75;4995269;28;98099;-34
2021/12/04 07:54:04;;;;;;;13.15;4.95;;;;;;;4.11;94.15;99762.41;4994904;28;96834;-35
2021/12/04 07:56:29;;;;;;;5.00;2.55;;;;;;;4.16;93.78;99768.38;4995627;28;96693;-34
2021/12/04 07:58:55;;;;;;;8.63;3.05;;;;;;;4.14;93.81;99759.56;4995182;28;97273;-34
2021/12/04 08:01:21;;;;;;;11.45;3.83;;;;;;;4.14;93.72;99749.69;4994611;28;97765;-34
2021/12/04 08:03:46;;;;;;;8.65;3.10;;;;;;;4.20;93.89;99753.91;4995207;28;96539;-35
2021/12/04 08:06:11;;;;;;;10.10;3.97;;;;;;;4.16;93.73;99742.44;4995154;28;96717;-34
2021/12/04 08:08:37;;;;;;;8.27;3.97;;;;;;;4.23;94.05;99751.91;4994876;28;97807;-34
2021/12/04 08:11:04;;;;;;;10.85;5.47;;;;;;;4.14;93.44;99743.47;4995326;28;99615;-35
2021/12/04 08:13:29;;;;;;;5.07;2.00;;;;;;;4.19;93.83;99747.63;4995217;28;96655;-35
2021/12/04 08:15:55;;;;;;;3.13;1.58;;;;;;;4.16;94.34;99739.78;4993670;28;96793;-34
2021/12/04 08:18:21;;;;;;;10.40;4.30;;;;;;;4.25;94.04;99760.72;4994398;28;97674;-34
2021/12/04 08:20:47;;;;;;;13.00;4.35;;;;;;;4.18;94.27;99755.78;4993231;28;99362;-35
2021/12/04 08:23:12;;;;;;;9.90;3.72;;;;;;;4.26;93.97;99765.13;4995179;28;96738;-35
2021/12/04 08:25:39;;;;;;;13.00;3.22;;;;;;;4.23;93.94;99765.28;4993999;28;96736;-35
2021/12/04 08:28:16;;;;;;;13.18;5.30;;;;;;;4.30;94.00;99770.34;4994290;28;98834;-35
2021/12/04 08:30:42;;;;;;;12.75;4.30;;;;;;;4.27;94.37;99771.38;4994366;28;110039;-34
2021/12/04 08:33:09;;;;;;;10.63;3.40;;;;;;;4.24;94.35;99761.69;4995014;28;96409;-35
2021/12/04 08:35:41;;;;;;;11.07;4.20;;;;;;;4.26;94.17;99758.91;4993868;28;96818;-34
2021/12/04 08:38:08;;;;;;;6.38;3.00;;;;;;;4.22;94.19;99752.00;4994732;28;98160;-35
2021/12/04 08:40:34;;;;;;;10.05;3.58;;;;;;;4.30;94.14;99767.66;4992918;28;100953;-35
2021/12/04 08:43:00;;;;;;;15.95;4.57;;;;;;;4.29;94.24;99757.88;4976113;28;96773;-35
2021/12/04 08:45:26;;;;;;;9.60;3.53;;;;;;;4.35;94.45;99768.28;4994476;28;96805;-35
2021/12/04 08:47:51;;;;;;;14.25;3.47;;;;;;;4.33;94.53;99760.31;4992967;28;101243;-35
2021/12/04 08:50:21;;;;;;;6.32;2.88;;;;;;;4.35;94.44;99755.75;4994455;28;97849;-34
2021/12/04 08:52:48;;;;;;;5.65;3.13;;;;;;;4.38;94.04;99752.03;4994511;28;96597;-34
2021/12/04 08:55:14;;;;;;;8.93;2.55;;;;;;;4.41;93.87;99749.16;4992957;28;96889;-35
2021/12/04 08:57:39;;;;;;;16.42;5.45;;;;;;;4.41;94.28;99743.81;4994048;28;97935;-34
2021/12/04 09:00:13;;;;;;;12.63;4.78;;;;;;;4.44;94.08;99735.63;4994004;28;117096;-34
2021/12/04 09:02:39;;;;;;;20.05;5.07;;;;;;;4.49;93.73;99740.75;4994260;28;96443;-34
2021/12/04 09:05:07;;;;;;;12.25;3.22;;;;;;;4.44;93.85;99731.13;4993226;28;96645;-35
2021/12/04 09:07:33;;;;;;;18.42;4.65;;;;;;;4.51;93.91;99744.22;4992401;28;100745;-35
2021/12/04 09:09:58;;;;;;;24.05;6.72;;;;;;;4.51;93.81;99745.06;4993931;28;97831;-35
2021/12/04 09:12:26;;;;;;;15.20;4.82;;;;;;;4.52;93.97;99743.25;4994420;28;96581;-35
2021/12/04 09:14:53;;;;;;;13.88;3.22;;;;;;;4.56;94.24;99745.69;4993083;28;96749;-34
2021/12/04 09:17:20;;;;;;;22.85;6.38;;;;;;;4.56;94.36;99743.00;4992847;28;100250;-35
2021/12/04 09:19:45;;;;;;;18.15;4.97;;;;;;;4.58;94.38;99738.41;4996064;28;100689;-34
2021/12/04 09:22:17;;;;;;;8.15;4.47;;;;;;;4.59;94.08;99733.91;4996376;28;96530;-34
2021/12/04 09:24:48;;;;;;;21.65;4.38;;;;;;;4.60;94.25;99730.25;4996736;28;96751;-35
2021/12/04 09:27:21;;;;;;;12.23;5.15;;;;;;;4.56;94.24;99718.84;4995847;28;101165;-35
2021/12/04 09:30:00;;;;;;;9.07;4.03;;;;;;;4.65;94.06;99713.00;4995896;28;100892;-35
2021/12/04 09:35:26;;;;;;;8.00;3.88;;;;;;;4.60;94.45;99688.25;4997558;28;96873;-34
2021/12/04 10:02:36;;;;;;;12.38;4.47;;;;;;;4.68;94.61;99680.63;4996540;28;97036;-34
2021/12/04 10:13:16;;;;;;;10.43;3.97;;;;;;;4.73;94.00;99650.88;4997075;28;96969;-34
2021/12/04 10:32:09;;;;;;;23.55;5.38;;;;;;;4.85;93.63;99676.13;5016608;28;96808;-35
2021/12/04 10:35:05;;;;;;;25.23;5.50;;;;;;;4.80;93.68;99667.47;5016453;28;97232;-34
2021/12/04 10:37:32;;;;;;;25.50;4.25;;;;;;;4.86;94.07;99670.69;5016508;28;96535;-35
2021/12/04 10:40:00;;;;;;;16.98;5.63;;;;;;;4.85;93.95;99674.31;5015191;28;96746;-34
2021/12/04 10:42:33;;;;;;;8.55;3.47;;;;;;;4.87;93.90;99676.91;5012925;28;100781;-35
2021/12/04 10:44:59;;;;;;;25.10;5.55;;;;;;;4.85;93.96;99671.63;5016099;28;99132;-35
2021/12/04 10:47:26;;;;;;;17.95;3.42;;;;;;;4.83;93.95;99678.88;5016264;28;96567;-35
2021/12/04 10:50:23;;;;;;;11.10;4.20;;;;;;;4.82;93.99;99668.25;5016347;28;96624;-34
2021/12/04 10:53:13;;;;;;;10.07;3.72;;;;;;;4.83;94.18;99667.28;5015743;28;97955;-35
2021/12/04 10:58:36;;;;;;;15.95;3.47;;;;;;;4.86;94.75;99657.28;5016249;28;96452;-34
2021/12/04 11:21:04;;;;;;;6.00;2.42;;;;;;;4.83;94.26;99602.91;5014317;28;96453;-34
2021/12/04 11:35:06;;;;;;;19.40;5.40;;;;;;;4.90;94.27;99594.41;5016348;28;96421;-35
2021/12/04 11:42:22;;;;;;;9.52;3.05;;;;;;;5.00;94.10;99592.06;5015222;28;96556;-35
2021/12/04 11:47:15;;;;;;;24.23;4.88;;;;;;;4.94;94.07;99568.28;5014741;28;97660;-34
2021/12/04 11:49:41;;;;;;;27.58;6.05;;;;;;;4.97;94.12;99588.69;5015215;28;97858;-34
2021/12/04 11:52:14;;;;;;;12.90;3.95;;;;;;;5.01;94.12;99584.88;5014079;28;96548;-34
2021/12/04 11:54:42;;;;;;;14.32;4.50;;;;;;;5.01;94.22;99576.84;5013617;28;96777;-35
2021/12/04 11:57:11;;;;;;;11.55;4.28;;;;;;;4.99;94.06;99560.81;5015185;28;100354;-35
2021/12/04 11:59:38;;;;;;;16.45;4.65;;;;;;;4.99;94.41;99565.31;5013642;28;101691;-35
2021/12/04 12:02:08;;;;;;;16.27;3.67;;;;;;;4.99;94.17;99582.28;5013589;28;96548;-34
2021/12/04 12:04:40;;;;;;;10.98;5.80;;;;;;;5.05;94.18;99599.84;5014173;28;96585;-35
2021/12/04 12:07:17;;;;;;;29.00;8.23;;;;;;;5.03;93.99;99597.25;5013359;28;101265;-35
2021/12/04 12:09:44;;;;;;;22.60;6.75;;;;;;;4.99;94.17;99579.59;5013339;28;101183;-35
2021/12/04 12:12:14;;;;;;;14.02;4.65;;;;;;;4.99;94.11;99571.56;5014589;28;96453;-35
2021/12/04 12:14:48;;;;;;;14.23;4.75;;;;;;;5.06;94.45;99580.97;5013902;28;96433;-35
2021/12/04 12:17:16;;;;;;;28.88;5.68;;;;;;;4.97;93.81;99557.34;5013381;28;101323;-35
2021/12/04 12:19:50;;;;;;;11.95;5.53;;;;;;;5.04;93.93;99564.09;5013245;28;100862;-35
2021/12/04 12:22:38;;;;;;;16.38;4.40;;;;;;;5.11;94.15;99572.63;5013624;28;96585;-35
2021/12/04 12:25:24;;;;;;;9.60;2.65;;;;;;;5.05;93.93;99547.03;5015010;28;96580;-35
2021/12/04 12:31:46;;;;;;;4.75;1.67;;;;;;;5.11;93.92;99557.41;5012762;28;100926;-35
2021/12/04 12:36:15;;;;;;;16.10;2.28;;;;;;;5.09;93.85;99543.19;5014428;28;96493;-34
2021/12/04 12:38:49;;;;;;;4.75;2.20;;;;;;;5.15;93.79;99549.16;5012226;28;102137;-34
2021/12/04 12:41:26;;;;;;;5.15;2.20;;;;;;;5.10;93.63;99546.75;5014696;28;97793;-35
2021/12/04 12:43:53;;;;;;;5.30;2.30;;;;;;;5.17;93.69;99557.97;5012000;28;96687;-35
2021/12/04 12:46:20;;;;;;;9.13;2.85;;;;;;;5.16;93.87;99557.13;5013240;28;96809;-35
2021/12/04 12:48:54;;;;;;;8.18;3.17;;;;;;;5.14;93.56;99547.44;5012970;28;101302;-35
2021/12/04 12:51:31;;;;;;;2.90;1.85;;;;;;;5.19;93.39;99559.63;5013048;28;100574;-35
2021/12/04 12:53:59;;;;;;;4.75;1.85;;;;;;;5.17;93.63;99547.25;5015800;28;96688;-34
2021/12/04 12:56:28;;;;;;;3.97;1.75;;;;;;;5.20;93.46;99547.94;5017195;28;96884;-35
2021/12/04 13:12:50;;;;;;;8.77;2.45;;;;;;;5.26;93.72;99555.59;5016207;28;96910;-35
2021/12/04 13:15:34;;;;;;;7.03;2.70;;;;;;;5.23;93.46;99537.00;5016561;28;96706;-35
2021/12/04 13:18:11;;;;;;;4.82;1.75;;;;;;;5.31;93.49;99547.28;5016457;28;96750;-35
2021/12/04 13:20:37;;;;;;;3.38;1.27;;;;;;;5.29;93.65;99541.13;5016063;28;100717;-35
2021/12/04 13:23:15;;;;;;;1.98;1.20;;;;;;;5.33;93.42;99548.03;5017886;28;97821;-35
2021/12/04 13:25:56;;;;;;;3.30;0.70;;;;;;;5.34;93.16;99549.78;5017954;28;96444;-34
2021/12/04 13:28:25;;;;;;;1.27;0.80;;;;;;;5.37;93.36;99549.59;5017661;28;96747;-35
2021/12/04 13:30:51;;;;;;;0.80;0.40;;;;;;;5.31;93.00;99544.59;5015534;28;100882;-35
2021/12/04 13:33:17;;;;;;;0.45;0.10;;;;;;;5.25;92.36;99534.25;5017336;28;97902;-34
2021/12/04 13:35:45;;;;;;;2.38;1.00;;;;;;;5.30;92.81;99548.25;5016139;28;96771;-35
2021/12/04 13:38:13;;;;;;;5.22;0.35;;;;;;;5.30;92.70;99546.41;5017648;28;96700;-35
2021/12/04 13:40:40;;;;;;;0.00;0.00;;;;;;;5.34;92.68;99555.16;5015747;28;100689;-34
2021/12/04 13:43:10;;;;;;;0.32;0.30;;;;;;;5.36;92.70;99558.59;5015845;28;100907;-35
2021/12/04 13:45:36;;;;;;;0.17;0.05;;;;;;;5.32;92.86;99551.69;5016194;28;96685;-34
2021/12/04 13:48:01;;;;;;;0.05;0.05;;;;;;;5.31;92.55;99560.69;5018020;28;96818;-35
2021/12/04 13:52:56;;;;;;;0.03;0.03;;;;;;;5.29;92.96;99557.22;5015896;28;97767;-35
2021/12/04 13:55:22;;;;;;;0.20;0.15;;;;;;;5.36;93.07;99573.84;5015331;28;96971;-35
2021/12/04 13:57:48;;;;;;;0.73;0.15;;;;;;;5.34;92.78;99571.28;5017166;28;96439;-34
2021/12/04 14:00:15;;;;;;;0.50;0.43;;;;;;;5.30;92.75;99557.16;5015519;28;100838;-35
2021/12/04 14:02:41;;;;;;;2.75;0.30;;;;;;;5.35;92.60;99569.44;5015246;28;101045;-34
2021/12/04 14:05:13;;;;;;;0.80;0.43;;;;;;;5.38;92.53;99571.94;5016579;28;96542;-35
2021/12/04 14:07:52;;;;;;;0.17;0.17;;;;;;;5.30;92.45;99565.22;5017448;28;96479;-34
2021/12/04 14:10:19;;;;;;;0.45;0.22;;;;;;;5.40;93.05;99581.63;5015377;28;100683;-34
2021/12/04 14:12:45;;;;;;;0.05;0.00;;;;;;;5.35;92.79;99575.66;5016881;28;99206;-34
2021/12/04 14:15:12;;;;;;;0.38;0.20;;;;;;;5.40;92.91;99587.00;5015642;28;96520;-35
2021/12/04 14:17:37;;;;;;;0.80;0.35;;;;;;;5.40;92.77;99587.00;5015430;28;96854;-34
2021/12/04 14:20:05;;;;;;;0.93;0.40;;;;;;;5.34;92.45;99584.69;5016194;28;97566;-34
2021/12/04 14:22:30;;;;;;;0.20;0.20;;;;;;;5.34;92.24;99587.38;5015061;28;102039;-35
2021/12/04 14:25:01;;;;;;;0.15;0.03;;;;;;;5.41;92.68;99599.47;5017100;28;96520;-34
2021/12/04 14:27:29;;;;;;;0.20;0.08;;;;;;;5.39;92.42;99601.38;5016883;28;96550;-34
2021/12/04 14:30:00;;;;;;;0.70;0.20;;;;;;;5.37;92.62;99602.44;5014922;28;101308;-34
2021/12/04 14:32:30;;;;;;;0.40;0.25;;;;;;;5.41;92.41;99606.66;5015064;28;100755;-35
2021/12/04 14:35:03;;;;;;;0.38;0.22;;;;;;;5.43;92.59;99616.34;5015207;28;96800;-35
2021/12/04 14:37:33;;;;;;;2.95;0.30;;;;;;;5.36;92.31;99608.75;5015548;28;96802;-35
2021/12/04 14:39:58;;;;;;;0.68;0.15;;;;;;;5.38;92.80;99614.91;5014830;28;101318;-35
2021/12/04 14:42:27;;;;;;;1.88;0.57;;;;;;;5.41;92.86;99617.38;5016536;28;97763;-34